sensor_id;sensor_type;location;lat;lon;timestamp;pressure;altitude;pressure_sealevel;temperature
38114;BMP180;23926;53.222;6.354;2022-12-11T00:01:17;100884.00;;;3.50
38114;BMP180;23926;53.222;6.354;2022-12-11T00:03:43;100888.00;;;3.50
38114;BMP180;23926;53.222;6.354;2022-12-11T00:06:10;100887.00;;;3.60
38114;BMP180;23926;53.222;6.354;2022-12-11T00:08:36;100880.00;;;3.60
38114;BMP180;23926;53.222;6.354;2022-12-11T00:11:01;100887.00;;;3.60
38114;BMP180;23926;53.222;6.354;2022-12-11T00:13:27;100876.00;;;3.60
38114;BMP180;23926;53.222;6.354;2022-12-11T00:15:53;100877.00;;;3.70
38114;BMP180;23926;53.222;6.354;2022-12-11T00:18:18;100879.00;;;3.70
38114;BMP180;23926;53.222;6.354;2022-12-11T00:20:43;100876.00;;;3.70
38114;BMP180;23926;53.222;6.354;2022-12-11T00:23:09;100868.00;;;3.60
38114;BMP180;23926;53.222;6.354;2022-12-11T00:25:39;100875.00;;;3.60
38114;BMP180;23926;53.222;6.354;2022-12-11T00:28:04;100872.00;;;3.60
38114;BMP180;23926;53.222;6.354;2022-12-11T00:30:30;100870.00;;;3.70
38114;BMP180;23926;53.222;6.354;2022-12-11T00:32:55;100866.00;;;3.60
38114;BMP180;23926;53.222;6.354;2022-12-11T00:35:20;100874.00;;;3.60
38114;BMP180;23926;53.222;6.354;2022-12-11T00:37:45;100864.00;;;3.60
38114;BMP180;23926;53.222;6.354;2022-12-11T00:40:11;100866.00;;;3.70
38114;BMP180;23926;53.222;6.354;2022-12-11T00:42:36;100870.00;;;3.60
38114;BMP180;23926;53.222;6.354;2022-12-11T00:45:02;100883.00;;;3.70
38114;BMP180;23926;53.222;6.354;2022-12-11T00:47:27;100881.00;;;3.70
38114;BMP180;23926;53.222;6.354;2022-12-11T00:49:52;100877.00;;;3.70
38114;BMP180;23926;53.222;6.354;2022-12-11T00:52:17;100874.00;;;3.70
38114;BMP180;23926;53.222;6.354;2022-12-11T00:54:43;100876.00;;;3.70
38114;BMP180;23926;53.222;6.354;2022-12-11T00:57:08;100869.00;;;3.80
38114;BMP180;23926;53.222;6.354;2022-12-11T00:59:33;100872.00;;;3.80
38114;BMP180;23926;53.222;6.354;2022-12-11T01:01:59;100881.00;;;3.80
38114;BMP180;23926;53.222;6.354;2022-12-11T01:04:24;100872.00;;;3.80
38114;BMP180;23926;53.222;6.354;2022-12-11T01:06:49;100880.00;;;3.80
38114;BMP180;23926;53.222;6.354;2022-12-11T01:09:15;100885.00;;;3.80
38114;BMP180;23926;53.222;6.354;2022-12-11T01:11:59;100886.00;;;3.70
38114;BMP180;23926;53.222;6.354;2022-12-11T01:14:25;100890.00;;;3.70
38114;BMP180;23926;53.222;6.354;2022-12-11T01:16:50;100894.00;;;3.60
38114;BMP180;23926;53.222;6.354;2022-12-11T01:19:15;100904.00;;;3.60
38114;BMP180;23926;53.222;6.354;2022-12-11T01:21:40;100898.00;;;3.60
38114;BMP180;23926;53.222;6.354;2022-12-11T01:24:06;100897.00;;;3.50
38114;BMP180;23926;53.222;6.354;2022-12-11T01:26:31;100890.00;;;3.50
38114;BMP180;23926;53.222;6.354;2022-12-11T01:28:56;100893.00;;;3.60
38114;BMP180;23926;53.222;6.354;2022-12-11T01:31:22;100897.00;;;3.50
38114;BMP180;23926;53.222;6.354;2022-12-11T01:33:47;100902.00;;;3.60
38114;BMP180;23926;53.222;6.354;2022-12-11T01:36:15;100917.00;;;3.60
38114;BMP180;23926;53.222;6.354;2022-12-11T01:38:42;100901.00;;;3.50
38114;BMP180;23926;53.222;6.354;2022-12-11T01:41:07;100914.00;;;3.50
38114;BMP180;23926;53.222;6.354;2022-12-11T01:43:33;100910.00;;;3.50
38114;BMP180;23926;53.222;6.354;2022-12-11T01:45:58;100909.00;;;3.50
38114;BMP180;23926;53.222;6.354;2022-12-11T01:48:24;100916.00;;;3.60
38114;BMP180;23926;53.222;6.354;2022-12-11T01:53:19;100921.00;;;3.70
38114;BMP180;23926;53.222;6.354;2022-12-11T01:55:45;100921.00;;;3.70
38114;BMP180;23926;53.222;6.354;2022-12-11T01:58:11;100912.00;;;3.70
38114;BMP180;23926;53.222;6.354;2022-12-11T02:00:36;100917.00;;;3.70
38114;BMP180;23926;53.222;6.354;2022-12-11T02:03:01;100921.00;;;3.70
38114;BMP180;23926;53.222;6.354;2022-12-11T02:05:27;100913.00;;;3.70
38114;BMP180;23926;53.222;6.354;2022-12-11T02:07:57;100911.00;;;3.70
38114;BMP180;23926;53.222;6.354;2022-12-11T02:10:23;100908.00;;;3.70
38114;BMP180;23926;53.222;6.354;2022-12-11T02:12:56;100909.00;;;3.80
38114;BMP180;23926;53.222;6.354;2022-12-11T02:15:24;100897.00;;;3.80
38114;BMP180;23926;53.222;6.354;2022-12-11T02:20:25;100900.00;;;3.80
38114;BMP180;23926;53.222;6.354;2022-12-11T02:30:41;100893.00;;;3.80
38114;BMP180;23926;53.222;6.354;2022-12-11T02:33:07;100887.00;;;3.80
38114;BMP180;23926;53.222;6.354;2022-12-11T02:35:38;100892.00;;;3.80
38114;BMP180;23926;53.222;6.354;2022-12-11T02:38:13;100890.00;;;3.90
38114;BMP180;23926;53.222;6.354;2022-12-11T02:40:39;100888.00;;;4.00
38114;BMP180;23926;53.222;6.354;2022-12-11T02:43:06;100886.00;;;4.00
38114;BMP180;23926;53.222;6.354;2022-12-11T02:45:33;100890.00;;;4.00
38114;BMP180;23926;53.222;6.354;2022-12-11T02:48:00;100897.00;;;4.00
38114;BMP180;23926;53.222;6.354;2022-12-11T02:50:26;100896.00;;;4.00
38114;BMP180;23926;53.222;6.354;2022-12-11T02:52:52;100892.00;;;4.00
38114;BMP180;23926;53.222;6.354;2022-12-11T02:55:20;100887.00;;;4.00
38114;BMP180;23926;53.222;6.354;2022-12-11T02:58:05;100895.00;;;4.00
38114;BMP180;23926;53.222;6.354;2022-12-11T03:00:32;100889.00;;;4.00
38114;BMP180;23926;53.222;6.354;2022-12-11T03:02:57;100885.00;;;4.00
38114;BMP180;23926;53.222;6.354;2022-12-11T03:05:23;100866.00;;;4.00
38114;BMP180;23926;53.222;6.354;2022-12-11T03:07:48;100872.00;;;4.00
38114;BMP180;23926;53.222;6.354;2022-12-11T03:10:14;100869.00;;;4.00
38114;BMP180;23926;53.222;6.354;2022-12-11T03:12:42;100873.00;;;4.00
38114;BMP180;23926;53.222;6.354;2022-12-11T03:15:08;100866.00;;;4.00
38114;BMP180;23926;53.222;6.354;2022-12-11T03:17:37;100854.00;;;4.00
38114;BMP180;23926;53.222;6.354;2022-12-11T03:22:46;100858.00;;;4.00
38114;BMP180;23926;53.222;6.354;2022-12-11T03:25:16;100861.00;;;4.00
38114;BMP180;23926;53.222;6.354;2022-12-11T03:30:13;100857.00;;;4.20
38114;BMP180;23926;53.222;6.354;2022-12-11T03:33:22;100858.00;;;4.20
38114;BMP180;23926;53.222;6.354;2022-12-11T03:35:30;100854.00;;;4.20
38114;BMP180;23926;53.222;6.354;2022-12-11T03:37:57;100865.00;;;4.10
38114;BMP180;23926;53.222;6.354;2022-12-11T03:40:24;100873.00;;;4.10
38114;BMP180;23926;53.222;6.354;2022-12-11T03:42:51;100869.00;;;4.20
38114;BMP180;23926;53.222;6.354;2022-12-11T03:45:18;100861.00;;;4.20
38114;BMP180;23926;53.222;6.354;2022-12-11T03:47:44;100864.00;;;4.10
38114;BMP180;23926;53.222;6.354;2022-12-11T03:50:10;100864.00;;;4.20
38114;BMP180;23926;53.222;6.354;2022-12-11T03:52:37;100858.00;;;4.10
38114;BMP180;23926;53.222;6.354;2022-12-11T03:55:03;100862.00;;;4.10
38114;BMP180;23926;53.222;6.354;2022-12-11T03:57:30;100850.00;;;4.00
38114;BMP180;23926;53.222;6.354;2022-12-11T03:59:57;100855.00;;;4.00
38114;BMP180;23926;53.222;6.354;2022-12-11T04:02:22;100855.00;;;4.10
38114;BMP180;23926;53.222;6.354;2022-12-11T04:04:48;100857.00;;;4.10
38114;BMP180;23926;53.222;6.354;2022-12-11T04:07:13;100852.00;;;4.10
38114;BMP180;23926;53.222;6.354;2022-12-11T04:09:39;100849.00;;;4.10
38114;BMP180;23926;53.222;6.354;2022-12-11T04:12:04;100858.00;;;4.10
38114;BMP180;23926;53.222;6.354;2022-12-11T04:14:29;100847.00;;;4.10
38114;BMP180;23926;53.222;6.354;2022-12-11T04:17:13;100853.00;;;4.20
38114;BMP180;23926;53.222;6.354;2022-12-11T04:19:58;100855.00;;;4.20
38114;BMP180;23926;53.222;6.354;2022-12-11T04:22:42;100858.00;;;4.10
38114;BMP180;23926;53.222;6.354;2022-12-11T04:25:26;100854.00;;;4.20
38114;BMP180;23926;53.222;6.354;2022-12-11T04:27:52;100856.00;;;4.10
38114;BMP180;23926;53.222;6.354;2022-12-11T04:30:21;100849.00;;;4.10
38114;BMP180;23926;53.222;6.354;2022-12-11T04:32:47;100837.00;;;4.20
38114;BMP180;23926;53.222;6.354;2022-12-11T04:35:12;100837.00;;;4.20
38114;BMP180;23926;53.222;6.354;2022-12-11T04:37:38;100845.00;;;4.20
38114;BMP180;23926;53.222;6.354;2022-12-11T04:40:04;100844.00;;;4.20
38114;BMP180;23926;53.222;6.354;2022-12-11T04:42:30;100846.00;;;4.20
38114;BMP180;23926;53.222;6.354;2022-12-11T04:44:55;100838.00;;;4.20
38114;BMP180;23926;53.222;6.354;2022-12-11T04:47:20;100845.00;;;4.20
38114;BMP180;23926;53.222;6.354;2022-12-11T04:49:46;100838.00;;;4.20
38114;BMP180;23926;53.222;6.354;2022-12-11T04:52:11;100845.00;;;4.10
38114;BMP180;23926;53.222;6.354;2022-12-11T04:54:36;100835.00;;;4.20
38114;BMP180;23926;53.222;6.354;2022-12-11T04:57:02;100832.00;;;4.20
38114;BMP180;23926;53.222;6.354;2022-12-11T04:59:27;100836.00;;;4.20
38114;BMP180;23926;53.222;6.354;2022-12-11T05:01:52;100831.00;;;4.20
38114;BMP180;23926;53.222;6.354;2022-12-11T05:04:18;100836.00;;;4.20
38114;BMP180;23926;53.222;6.354;2022-12-11T05:06:43;100832.00;;;4.20
38114;BMP180;23926;53.222;6.354;2022-12-11T05:09:11;100830.00;;;4.10
38114;BMP180;23926;53.222;6.354;2022-12-11T05:11:37;100830.00;;;4.10
38114;BMP180;23926;53.222;6.354;2022-12-11T05:14:02;100837.00;;;4.10
38114;BMP180;23926;53.222;6.354;2022-12-11T05:16:28;100843.00;;;4.10
38114;BMP180;23926;53.222;6.354;2022-12-11T05:18:53;100832.00;;;4.00
38114;BMP180;23926;53.222;6.354;2022-12-11T05:21:18;100829.00;;;4.10
38114;BMP180;23926;53.222;6.354;2022-12-11T05:23:44;100828.00;;;4.00
38114;BMP180;23926;53.222;6.354;2022-12-11T05:26:14;100829.00;;;4.00
38114;BMP180;23926;53.222;6.354;2022-12-11T05:28:40;100815.00;;;4.10
38114;BMP180;23926;53.222;6.354;2022-12-11T05:31:12;100820.00;;;4.10
38114;BMP180;23926;53.222;6.354;2022-12-11T05:33:38;100815.00;;;4.10
38114;BMP180;23926;53.222;6.354;2022-12-11T05:36:04;100816.00;;;4.20
38114;BMP180;23926;53.222;6.354;2022-12-11T05:38:30;100818.00;;;4.20
38114;BMP180;23926;53.222;6.354;2022-12-11T05:40:59;100822.00;;;4.20
38114;BMP180;23926;53.222;6.354;2022-12-11T05:43:26;100810.00;;;4.20
38114;BMP180;23926;53.222;6.354;2022-12-11T05:45:52;100810.00;;;4.20
38114;BMP180;23926;53.222;6.354;2022-12-11T05:48:17;100810.00;;;4.20
38114;BMP180;23926;53.222;6.354;2022-12-11T05:50:43;100808.00;;;4.20
38114;BMP180;23926;53.222;6.354;2022-12-11T05:53:08;100804.00;;;4.20
38114;BMP180;23926;53.222;6.354;2022-12-11T05:55:33;100814.00;;;4.20
38114;BMP180;23926;53.222;6.354;2022-12-11T05:57:59;100811.00;;;4.20
38114;BMP180;23926;53.222;6.354;2022-12-11T06:00:24;100810.00;;;4.20
38114;BMP180;23926;53.222;6.354;2022-12-11T06:02:49;100803.00;;;4.30
38114;BMP180;23926;53.222;6.354;2022-12-11T06:05:15;100805.00;;;4.30
38114;BMP180;23926;53.222;6.354;2022-12-11T06:07:40;100805.00;;;4.30
38114;BMP180;23926;53.222;6.354;2022-12-11T06:10:06;100796.00;;;4.30
38114;BMP180;23926;53.222;6.354;2022-12-11T06:12:31;100797.00;;;4.40
38114;BMP180;23926;53.222;6.354;2022-12-11T06:14:56;100804.00;;;4.30
38114;BMP180;23926;53.222;6.354;2022-12-11T06:17:22;100799.00;;;4.20
38114;BMP180;23926;53.222;6.354;2022-12-11T06:19:47;100801.00;;;4.20
38114;BMP180;23926;53.222;6.354;2022-12-11T06:22:12;100790.00;;;4.20
38114;BMP180;23926;53.222;6.354;2022-12-11T06:24:38;100797.00;;;4.30
38114;BMP180;23926;53.222;6.354;2022-12-11T06:27:03;100792.00;;;4.30
38114;BMP180;23926;53.222;6.354;2022-12-11T06:29:28;100794.00;;;4.30
38114;BMP180;23926;53.222;6.354;2022-12-11T06:31:53;100797.00;;;4.30
38114;BMP180;23926;53.222;6.354;2022-12-11T06:34:19;100799.00;;;4.30
38114;BMP180;23926;53.222;6.354;2022-12-11T06:36:44;100796.00;;;4.30
38114;BMP180;23926;53.222;6.354;2022-12-11T06:39:09;100799.00;;;4.30
38114;BMP180;23926;53.222;6.354;2022-12-11T06:41:36;100809.00;;;4.30
38114;BMP180;23926;53.222;6.354;2022-12-11T06:44:01;100806.00;;;4.30
38114;BMP180;23926;53.222;6.354;2022-12-11T06:46:26;100803.00;;;4.30
38114;BMP180;23926;53.222;6.354;2022-12-11T06:48:52;100801.00;;;4.20
38114;BMP180;23926;53.222;6.354;2022-12-11T06:51:18;100808.00;;;4.30
38114;BMP180;23926;53.222;6.354;2022-12-11T06:53:43;100811.00;;;4.20
38114;BMP180;23926;53.222;6.354;2022-12-11T06:56:13;100813.00;;;4.20
38114;BMP180;23926;53.222;6.354;2022-12-11T06:58:39;100827.00;;;4.20
38114;BMP180;23926;53.222;6.354;2022-12-11T07:01:11;100838.00;;;4.20
38114;BMP180;23926;53.222;6.354;2022-12-11T07:03:37;100826.00;;;4.20
38114;BMP180;23926;53.222;6.354;2022-12-11T07:06:03;100831.00;;;4.30
38114;BMP180;23926;53.222;6.354;2022-12-11T07:08:28;100826.00;;;4.30
38114;BMP180;23926;53.222;6.354;2022-12-11T07:10:54;100839.00;;;4.20
38114;BMP180;23926;53.222;6.354;2022-12-11T07:13:19;100835.00;;;4.20
38114;BMP180;23926;53.222;6.354;2022-12-11T07:15:44;100833.00;;;4.30
38114;BMP180;23926;53.222;6.354;2022-12-11T07:18:09;100828.00;;;4.30
38114;BMP180;23926;53.222;6.354;2022-12-11T07:20:35;100844.00;;;4.30
38114;BMP180;23926;53.222;6.354;2022-12-11T07:23:00;100834.00;;;4.30
38114;BMP180;23926;53.222;6.354;2022-12-11T07:25:25;100834.00;;;4.30
38114;BMP180;23926;53.222;6.354;2022-12-11T07:27:51;100829.00;;;4.30
38114;BMP180;23926;53.222;6.354;2022-12-11T07:30:16;100830.00;;;4.30
38114;BMP180;23926;53.222;6.354;2022-12-11T07:32:41;100828.00;;;4.30
38114;BMP180;23926;53.222;6.354;2022-12-11T07:35:07;100837.00;;;4.30
38114;BMP180;23926;53.222;6.354;2022-12-11T07:37:32;100837.00;;;4.20
38114;BMP180;23926;53.222;6.354;2022-12-11T07:39:57;100844.00;;;4.20
38114;BMP180;23926;53.222;6.354;2022-12-11T07:42:22;100847.00;;;4.20
38114;BMP180;23926;53.222;6.354;2022-12-11T07:44:48;100851.00;;;4.30
38114;BMP180;23926;53.222;6.354;2022-12-11T07:47:13;100839.00;;;4.20
38114;BMP180;23926;53.222;6.354;2022-12-11T07:49:39;100843.00;;;4.20
38114;BMP180;23926;53.222;6.354;2022-12-11T07:52:04;100844.00;;;4.20
38114;BMP180;23926;53.222;6.354;2022-12-11T07:54:29;100846.00;;;4.20
38114;BMP180;23926;53.222;6.354;2022-12-11T07:56:54;100845.00;;;4.20
38114;BMP180;23926;53.222;6.354;2022-12-11T07:59:20;100843.00;;;4.30
38114;BMP180;23926;53.222;6.354;2022-12-11T08:01:45;100838.00;;;4.30
38114;BMP180;23926;53.222;6.354;2022-12-11T08:04:10;100834.00;;;4.30
38114;BMP180;23926;53.222;6.354;2022-12-11T08:06:38;100833.00;;;4.20
38114;BMP180;23926;53.222;6.354;2022-12-11T08:09:05;100844.00;;;4.20
38114;BMP180;23926;53.222;6.354;2022-12-11T08:11:30;100832.00;;;4.20
38114;BMP180;23926;53.222;6.354;2022-12-11T08:13:56;100836.00;;;4.20
38114;BMP180;23926;53.222;6.354;2022-12-11T08:16:23;100835.00;;;4.20
38114;BMP180;23926;53.222;6.354;2022-12-11T08:18:48;100844.00;;;4.30
38114;BMP180;23926;53.222;6.354;2022-12-11T08:21:14;100838.00;;;4.30
38114;BMP180;23926;53.222;6.354;2022-12-11T08:23:40;100847.00;;;4.20
38114;BMP180;23926;53.222;6.354;2022-12-11T08:26:06;100838.00;;;4.30
38114;BMP180;23926;53.222;6.354;2022-12-11T08:28:32;100837.00;;;4.30
38114;BMP180;23926;53.222;6.354;2022-12-11T08:30:58;100836.00;;;4.30
38114;BMP180;23926;53.222;6.354;2022-12-11T08:33:23;100839.00;;;4.30
38114;BMP180;23926;53.222;6.354;2022-12-11T08:35:48;100835.00;;;4.30
38114;BMP180;23926;53.222;6.354;2022-12-11T08:38:14;100837.00;;;4.40
38114;BMP180;23926;53.222;6.354;2022-12-11T08:40:39;100837.00;;;4.40
38114;BMP180;23926;53.222;6.354;2022-12-11T08:43:04;100843.00;;;4.30
38114;BMP180;23926;53.222;6.354;2022-12-11T08:45:30;100849.00;;;4.30
38114;BMP180;23926;53.222;6.354;2022-12-11T08:47:55;100846.00;;;4.30
38114;BMP180;23926;53.222;6.354;2022-12-11T08:50:22;100848.00;;;4.30
38114;BMP180;23926;53.222;6.354;2022-12-11T08:52:47;100851.00;;;4.30
38114;BMP180;23926;53.222;6.354;2022-12-11T08:55:12;100839.00;;;4.40
38114;BMP180;23926;53.222;6.354;2022-12-11T08:57:37;100845.00;;;4.40
38114;BMP180;23926;53.222;6.354;2022-12-11T09:00:06;100838.00;;;4.40
38114;BMP180;23926;53.222;6.354;2022-12-11T09:02:32;100854.00;;;4.40
38114;BMP180;23926;53.222;6.354;2022-12-11T09:04:58;100851.00;;;4.40
38114;BMP180;23926;53.222;6.354;2022-12-11T09:07:23;100850.00;;;4.40
38114;BMP180;23926;53.222;6.354;2022-12-11T09:09:49;100849.00;;;4.40
38114;BMP180;23926;53.222;6.354;2022-12-11T09:12:14;100844.00;;;4.40
38114;BMP180;23926;53.222;6.354;2022-12-11T09:14:39;100849.00;;;4.40
38114;BMP180;23926;53.222;6.354;2022-12-11T09:17:05;100844.00;;;4.40
38114;BMP180;23926;53.222;6.354;2022-12-11T09:19:30;100849.00;;;4.40
38114;BMP180;23926;53.222;6.354;2022-12-11T09:21:55;100831.00;;;4.40
38114;BMP180;23926;53.222;6.354;2022-12-11T09:24:21;100834.00;;;4.40
38114;BMP180;23926;53.222;6.354;2022-12-11T09:26:46;100821.00;;;4.40
38114;BMP180;23926;53.222;6.354;2022-12-11T09:29:11;100830.00;;;4.50
38114;BMP180;23926;53.222;6.354;2022-12-11T09:31:37;100821.00;;;4.50
38114;BMP180;23926;53.222;6.354;2022-12-11T09:34:04;100823.00;;;4.60
38114;BMP180;23926;53.222;6.354;2022-12-11T09:36:30;100824.00;;;4.60
38114;BMP180;23926;53.222;6.354;2022-12-11T09:38:58;100824.00;;;4.70
38114;BMP180;23926;53.222;6.354;2022-12-11T09:44:00;100813.00;;;4.70
38114;BMP180;23926;53.222;6.354;2022-12-11T09:46:26;100826.00;;;4.70
38114;BMP180;23926;53.222;6.354;2022-12-11T09:48:52;100817.00;;;4.70
38114;BMP180;23926;53.222;6.354;2022-12-11T09:54:02;100827.00;;;4.70
38114;BMP180;23926;53.222;6.354;2022-12-11T10:01:54;100823.00;;;4.80
38114;BMP180;23926;53.222;6.354;2022-12-11T10:04:24;100831.00;;;4.80
38114;BMP180;23926;53.222;6.354;2022-12-11T10:14:25;100822.00;;;4.90
38114;BMP180;23926;53.222;6.354;2022-12-11T10:16:56;100820.00;;;5.00
38114;BMP180;23926;53.222;6.354;2022-12-11T10:19:25;100825.00;;;5.00
38114;BMP180;23926;53.222;6.354;2022-12-11T10:21:51;100827.00;;;4.90
38114;BMP180;23926;53.222;6.354;2022-12-11T10:26:48;100816.00;;;5.00
38114;BMP180;23926;53.222;6.354;2022-12-11T10:29:16;100811.00;;;5.00
38114;BMP180;23926;53.222;6.354;2022-12-11T10:34:25;100818.00;;;5.10
38114;BMP180;23926;53.222;6.354;2022-12-11T10:36:53;100815.00;;;5.20
38114;BMP180;23926;53.222;6.354;2022-12-11T10:39:19;100812.00;;;5.20
38114;BMP180;23926;53.222;6.354;2022-12-11T10:41:48;100819.00;;;5.30
38114;BMP180;23926;53.222;6.354;2022-12-11T10:44:32;100812.00;;;5.30
38114;BMP180;23926;53.222;6.354;2022-12-11T10:47:10;100805.00;;;5.30
38114;BMP180;23926;53.222;6.354;2022-12-11T10:49:37;100804.00;;;5.30
38114;BMP180;23926;53.222;6.354;2022-12-11T10:52:16;100807.00;;;5.40
38114;BMP180;23926;53.222;6.354;2022-12-11T10:54:46;100802.00;;;5.30
38114;BMP180;23926;53.222;6.354;2022-12-11T10:57:13;100801.00;;;5.40
38114;BMP180;23926;53.222;6.354;2022-12-11T11:04:52;100796.00;;;5.50
38114;BMP180;23926;53.222;6.354;2022-12-11T11:07:19;100803.00;;;5.40
38114;BMP180;23926;53.222;6.354;2022-12-11T11:09:45;100805.00;;;5.40
38114;BMP180;23926;53.222;6.354;2022-12-11T11:12:23;100796.00;;;5.40
38114;BMP180;23926;53.222;6.354;2022-12-11T11:15:09;100802.00;;;5.40
38114;BMP180;23926;53.222;6.354;2022-12-11T11:17:41;100797.00;;;5.50
38114;BMP180;23926;53.222;6.354;2022-12-11T11:20:11;100802.00;;;5.50
38114;BMP180;23926;53.222;6.354;2022-12-11T11:22:41;100790.00;;;5.40
38114;BMP180;23926;53.222;6.354;2022-12-11T11:25:14;100797.00;;;5.40
38114;BMP180;23926;53.222;6.354;2022-12-11T11:28:00;100787.00;;;5.40
38114;BMP180;23926;53.222;6.354;2022-12-11T11:30:27;100793.00;;;5.40
38114;BMP180;23926;53.222;6.354;2022-12-11T11:32:57;100794.00;;;5.40
38114;BMP180;23926;53.222;6.354;2022-12-11T11:35:27;100796.00;;;5.40
38114;BMP180;23926;53.222;6.354;2022-12-11T11:37:57;100798.00;;;5.40
38114;BMP180;23926;53.222;6.354;2022-12-11T11:40:25;100807.00;;;5.50
38114;BMP180;23926;53.222;6.354;2022-12-11T11:43:06;100792.00;;;5.50
38114;BMP180;23926;53.222;6.354;2022-12-11T11:45:36;100797.00;;;5.60
38114;BMP180;23926;53.222;6.354;2022-12-11T11:48:23;100788.00;;;5.50
38114;BMP180;23926;53.222;6.354;2022-12-11T11:50:51;100789.00;;;5.60
38114;BMP180;23926;53.222;6.354;2022-12-11T11:55:54;100798.00;;;5.70
38114;BMP180;23926;53.222;6.354;2022-12-11T11:58:29;100795.00;;;5.70
38114;BMP180;23926;53.222;6.354;2022-12-11T12:00:57;100797.00;;;5.70
38114;BMP180;23926;53.222;6.354;2022-12-11T12:03:22;100789.00;;;5.70
38114;BMP180;23926;53.222;6.354;2022-12-11T12:05:51;100789.00;;;5.60
38114;BMP180;23926;53.222;6.354;2022-12-11T12:10:51;100786.00;;;5.60
38114;BMP180;23926;53.222;6.354;2022-12-11T12:16:01;100786.00;;;5.50
38114;BMP180;23926;53.222;6.354;2022-12-11T12:26:26;100794.00;;;5.50
38114;BMP180;23926;53.222;6.354;2022-12-11T12:33:59;100789.00;;;5.60
38114;BMP180;23926;53.222;6.354;2022-12-11T12:36:28;100787.00;;;5.60
38114;BMP180;23926;53.222;6.354;2022-12-11T12:38:59;100783.00;;;5.60
38114;BMP180;23926;53.222;6.354;2022-12-11T12:49:08;100786.00;;;5.60
38114;BMP180;23926;53.222;6.354;2022-12-11T12:51:36;100776.00;;;5.60
38114;BMP180;23926;53.222;6.354;2022-12-11T12:54:02;100784.00;;;5.70
38114;BMP180;23926;53.222;6.354;2022-12-11T12:56:28;100782.00;;;5.70
38114;BMP180;23926;53.222;6.354;2022-12-11T12:58:54;100778.00;;;5.70
38114;BMP180;23926;53.222;6.354;2022-12-11T13:01:21;100782.00;;;5.60
38114;BMP180;23926;53.222;6.354;2022-12-11T13:03:57;100777.00;;;5.70
38114;BMP180;23926;53.222;6.354;2022-12-11T13:08:54;100777.00;;;5.70
38114;BMP180;23926;53.222;6.354;2022-12-11T13:11:20;100777.00;;;5.70
38114;BMP180;23926;53.222;6.354;2022-12-11T13:14:05;100781.00;;;5.60
38114;BMP180;23926;53.222;6.354;2022-12-11T13:16:38;100779.00;;;5.60
38114;BMP180;23926;53.222;6.354;2022-12-11T13:22:22;100796.00;;;5.60
38114;BMP180;23926;53.222;6.354;2022-12-11T13:24:45;100785.00;;;5.50
38114;BMP180;23926;53.222;6.354;2022-12-11T13:27:21;100787.00;;;5.50
38114;BMP180;23926;53.222;6.354;2022-12-11T13:29:47;100796.00;;;5.50
38114;BMP180;23926;53.222;6.354;2022-12-11T13:34:38;100792.00;;;5.60
38114;BMP180;23926;53.222;6.354;2022-12-11T13:37:04;100791.00;;;5.50
38114;BMP180;23926;53.222;6.354;2022-12-11T13:39:31;100801.00;;;5.50
38114;BMP180;23926;53.222;6.354;2022-12-11T13:42:01;100796.00;;;5.60
38114;BMP180;23926;53.222;6.354;2022-12-11T13:44:29;100801.00;;;5.50
38114;BMP180;23926;53.222;6.354;2022-12-11T13:46:57;100792.00;;;5.50
38114;BMP180;23926;53.222;6.354;2022-12-11T13:49:24;100789.00;;;5.50
38114;BMP180;23926;53.222;6.354;2022-12-11T13:51:57;100790.00;;;5.50
38114;BMP180;23926;53.222;6.354;2022-12-11T13:54:22;100785.00;;;5.40
38114;BMP180;23926;53.222;6.354;2022-12-11T13:57:30;100785.00;;;5.40
38114;BMP180;23926;53.222;6.354;2022-12-11T13:59:40;100782.00;;;5.40
38114;BMP180;23926;53.222;6.354;2022-12-11T14:04:42;100791.00;;;5.40
38114;BMP180;23926;53.222;6.354;2022-12-11T14:07:08;100786.00;;;5.30
38114;BMP180;23926;53.222;6.354;2022-12-11T14:09:35;100791.00;;;5.30
38114;BMP180;23926;53.222;6.354;2022-12-11T14:12:01;100801.00;;;5.30
38114;BMP180;23926;53.222;6.354;2022-12-11T14:14:46;100796.00;;;5.30
38114;BMP180;23926;53.222;6.354;2022-12-11T14:17:14;100801.00;;;5.30
38114;BMP180;23926;53.222;6.354;2022-12-11T14:19:44;100803.00;;;5.20
38114;BMP180;23926;53.222;6.354;2022-12-11T14:22:20;100810.00;;;5.20
38114;BMP180;23926;53.222;6.354;2022-12-11T14:24:56;100799.00;;;5.10
38114;BMP180;23926;53.222;6.354;2022-12-11T14:27:22;100810.00;;;5.10
38114;BMP180;23926;53.222;6.354;2022-12-11T14:29:47;100808.00;;;5.10
38114;BMP180;23926;53.222;6.354;2022-12-11T14:32:25;100802.00;;;5.10
38114;BMP180;23926;53.222;6.354;2022-12-11T14:34:52;100803.00;;;5.10
38114;BMP180;23926;53.222;6.354;2022-12-11T14:37:19;100812.00;;;5.00
38114;BMP180;23926;53.222;6.354;2022-12-11T14:39:52;100815.00;;;5.00
38114;BMP180;23926;53.222;6.354;2022-12-11T14:42:19;100809.00;;;5.00
38114;BMP180;23926;53.222;6.354;2022-12-11T14:44:49;100811.00;;;4.90
38114;BMP180;23926;53.222;6.354;2022-12-11T14:47:20;100806.00;;;4.90
38114;BMP180;23926;53.222;6.354;2022-12-11T14:49:54;100808.00;;;4.80
38114;BMP180;23926;53.222;6.354;2022-12-11T14:52:24;100806.00;;;4.70
38114;BMP180;23926;53.222;6.354;2022-12-11T14:54:54;100817.00;;;4.70
38114;BMP180;23926;53.222;6.354;2022-12-11T14:57:22;100811.00;;;4.60
38114;BMP180;23926;53.222;6.354;2022-12-11T14:59:50;100810.00;;;4.60
38114;BMP180;23926;53.222;6.354;2022-12-11T15:07:31;100810.00;;;4.50
38114;BMP180;23926;53.222;6.354;2022-12-11T15:09:57;100806.00;;;4.50
38114;BMP180;23926;53.222;6.354;2022-12-11T15:12:23;100806.00;;;4.50
38114;BMP180;23926;53.222;6.354;2022-12-11T15:17:14;100807.00;;;4.50
38114;BMP180;23926;53.222;6.354;2022-12-11T15:19:39;100799.00;;;4.60
38114;BMP180;23926;53.222;6.354;2022-12-11T15:22:05;100797.00;;;4.60
38114;BMP180;23926;53.222;6.354;2022-12-11T15:24:35;100801.00;;;4.50
38114;BMP180;23926;53.222;6.354;2022-12-11T15:27:02;100797.00;;;4.50
38114;BMP180;23926;53.222;6.354;2022-12-11T15:29:37;100800.00;;;4.70
38114;BMP180;23926;53.222;6.354;2022-12-11T15:37:18;100810.00;;;4.40
38114;BMP180;23926;53.222;6.354;2022-12-11T15:39:44;100815.00;;;4.40
38114;BMP180;23926;53.222;6.354;2022-12-11T15:42:10;100815.00;;;4.40
38114;BMP180;23926;53.222;6.354;2022-12-11T15:44:37;100814.00;;;4.40
38114;BMP180;23926;53.222;6.354;2022-12-11T15:47:10;100815.00;;;4.40
38114;BMP180;23926;53.222;6.354;2022-12-11T15:49:36;100816.00;;;4.40